createdAt,value
2018-06-09T00:01:20.384Z,80.15
2018-06-09T00:03:49.005Z,79.51
2018-06-09T00:06:17.512Z,80.01
2018-06-09T00:08:46.456Z,79.71
2018-06-09T00:11:15.127Z,80.43
2018-06-09T00:13:44.307Z,80.37
2018-06-09T00:16:12.904Z,79.42
2018-06-09T00:18:41.375Z,80.32
2018-06-09T00:21:09.866Z,80.84
2018-06-09T00:23:38.490Z,79.62
2018-06-09T00:26:06.908Z,80.33
2018-06-09T00:28:36.060Z,80.83
2018-06-09T00:31:04.538Z,80.67
2018-06-09T00:33:32.980Z,80.26
2018-06-09T00:36:01.673Z,79.98
2018-06-09T00:38:30.019Z,80.03
2018-06-09T00:40:58.808Z,80.97
2018-06-09T00:43:27.348Z,80.18
2018-06-09T00:45:55.942Z,80.47
2018-06-09T00:48:24.296Z,80.23
2018-06-09T00:50:52.856Z,80.15
2018-06-09T00:53:21.631Z,79.83
2018-06-09T00:55:54.636Z,80.18
2018-06-09T00:58:23.148Z,80.39
2018-06-09T01:00:51.727Z,79.69
2018-06-09T01:03:20.442Z,80.64
2018-06-09T01:05:48.748Z,79.83
2018-06-09T01:08:17.315Z,80.20
2018-06-09T01:10:45.831Z,79.82
2018-06-09T01:13:14.315Z,80.20
2018-06-09T01:15:42.902Z,80.70
2018-06-09T01:18:11.764Z,80.72
2018-06-09T01:20:40.353Z,80.81
2018-06-09T01:23:08.886Z,81.61
2018-06-09T01:25:37.485Z,82.02
2018-06-09T01:28:06.067Z,82.10
2018-06-09T01:30:35.036Z,81.90
2018-06-09T01:33:04.140Z,82.27
2018-06-09T01:35:33.001Z,82.74
2018-06-09T01:38:01.441Z,82.25
2018-06-09T01:40:30.243Z,81.90
2018-06-09T01:42:59.308Z,82.23
2018-06-09T01:45:27.772Z,82.71
2018-06-09T01:47:56.324Z,81.71
2018-06-09T01:50:25.160Z,82.16
2018-06-09T01:52:53.757Z,81.29
2018-06-09T01:55:22.300Z,82.00
2018-06-09T01:57:50.876Z,81.45
2018-06-09T02:00:19.455Z,80.85
2018-06-09T02:02:47.824Z,81.20
2018-06-09T02:05:16.291Z,80.47
2018-06-09T02:07:44.820Z,80.69
2018-06-09T02:10:13.333Z,81.27
2018-06-09T02:12:42.048Z,80.29
2018-06-09T02:15:10.663Z,80.31
2018-06-09T02:17:39.357Z,80.94
2018-06-09T02:20:08.054Z,80.84
2018-06-09T02:22:36.769Z,80.23
2018-06-09T02:25:05.499Z,80.95
2018-06-09T02:27:34.079Z,80.69
2018-06-09T02:30:02.356Z,80.97
2018-06-09T02:32:31.233Z,80.94
2018-06-09T02:34:59.514Z,81.09
2018-06-09T02:37:27.940Z,81.64
2018-06-09T02:39:56.853Z,81.29
2018-06-09T02:42:25.748Z,81.61
2018-06-09T02:44:54.813Z,82.05
2018-06-09T02:47:23.508Z,82.05
2018-06-09T02:49:52.250Z,81.53
2018-06-09T02:52:20.767Z,81.65
2018-06-09T02:54:49.281Z,81.24
2018-06-09T02:57:19.070Z,81.35
2018-06-09T02:59:48.183Z,80.87
2018-06-09T03:02:16.619Z,81.23
2018-06-09T03:04:45.409Z,81.81
2018-06-09T03:07:14.512Z,81.02
2018-06-09T03:09:43.022Z,81.79
2018-06-09T03:12:11.817Z,81.09
2018-06-09T03:14:40.556Z,81.93
2018-06-09T03:17:08.931Z,81.44
2018-06-09T03:19:37.598Z,80.76
2018-06-09T03:22:06.103Z,79.55
2018-06-09T03:24:34.615Z,81.13
2018-06-09T03:27:03.077Z,80.49
2018-06-09T03:29:31.665Z,80.41
2018-06-09T03:32:00.267Z,80.64
2018-06-09T03:34:28.887Z,80.40
2018-06-09T03:36:57.380Z,80.51
2018-06-09T03:39:25.918Z,81.08
2018-06-09T03:41:54.645Z,80.71
2018-06-09T03:44:23.420Z,80.54
2018-06-09T03:46:52.179Z,80.49
2018-06-09T03:49:21.093Z,80.27
2018-06-09T03:51:49.484Z,80.58
2018-06-09T03:54:18.261Z,79.58
2018-06-09T03:56:47.140Z,79.77
2018-06-09T03:59:15.745Z,79.62
2018-06-09T04:01:44.329Z,79.18
2018-06-09T04:04:13.161Z,79.12
2018-06-09T04:06:41.595Z,79.26
2018-06-09T04:09:10.197Z,78.73
2018-06-09T04:11:39.010Z,78.19
2018-06-09T04:14:07.543Z,77.67
2018-06-09T04:16:36.248Z,76.76
2018-06-09T04:19:05.074Z,77.20
2018-06-09T04:21:33.750Z,76.73
2018-06-09T04:24:02.433Z,76.25
2018-06-09T04:26:30.878Z,76.39
2018-06-09T04:28:59.533Z,75.94
2018-06-09T04:31:28.179Z,75.90
2018-06-09T04:33:57.062Z,75.46
2018-06-09T04:36:25.434Z,74.76
2018-06-09T04:38:53.889Z,74.55
2018-06-09T04:41:22.617Z,74.25
2018-06-09T04:43:51.282Z,74.02
2018-06-09T04:46:20.543Z,73.90
2018-06-09T04:48:49.363Z,73.51
2018-06-09T04:51:17.831Z,73.81
2018-06-09T04:53:46.263Z,72.19
2018-06-09T04:56:14.841Z,72.74
2018-06-09T04:58:43.768Z,72.70
2018-06-09T05:01:12.381Z,72.61
2018-06-09T05:03:40.853Z,71.07
2018-06-09T05:06:09.491Z,71.36
2018-06-09T05:08:38.107Z,71.80
2018-06-09T05:11:06.577Z,68.52
2018-06-09T05:13:35.239Z,69.33
2018-06-09T05:16:03.908Z,68.74
2018-06-09T05:18:32.300Z,67.66
2018-06-09T05:21:00.673Z,67.04
2018-06-09T05:23:29.140Z,67.83
2018-06-09T05:25:57.576Z,66.99
2018-06-09T05:28:26.013Z,66.81
2018-06-09T05:30:54.612Z,66.73
2018-06-09T05:33:23.181Z,66.29
2018-06-09T05:35:51.977Z,67.55
2018-06-09T05:38:20.200Z,66.59
2018-06-09T05:40:49.368Z,65.65
2018-06-09T05:43:17.925Z,66.33
2018-06-09T05:45:46.566Z,64.53
2018-06-09T05:48:14.956Z,65.27
2018-06-09T05:50:43.583Z,64.79
2018-06-09T05:53:12.008Z,65.20
2018-06-09T05:55:40.431Z,65.60
2018-06-09T05:58:08.901Z,66.38
2018-06-09T06:00:37.627Z,66.51
2018-06-09T06:03:06.059Z,65.75
2018-06-09T06:05:34.754Z,65.68
2018-06-09T06:08:03.324Z,65.52
2018-06-09T06:10:32.074Z,65.92
2018-06-09T06:13:00.435Z,67.11
2018-06-09T06:15:29.034Z,65.92
2018-06-09T06:17:57.615Z,64.32
2018-06-09T06:20:25.877Z,65.26
2018-06-09T06:22:54.397Z,63.57
2018-06-09T06:25:22.927Z,62.82
2018-06-09T06:27:51.578Z,63.24
2018-06-09T06:30:20.152Z,63.25
2018-06-09T06:32:48.647Z,62.01
2018-06-09T06:35:17.355Z,61.83
2018-06-09T06:37:45.953Z,61.47
2018-06-09T06:40:17.475Z,60.92
2018-06-09T06:42:45.875Z,62.30
2018-06-09T06:45:14.380Z,61.89
2018-06-09T06:47:43.073Z,61.15
2018-06-09T06:50:11.559Z,61.73
2018-06-09T06:52:40.046Z,61.66
2018-06-09T06:55:08.775Z,61.05
2018-06-09T06:57:37.413Z,61.30
2018-06-09T07:00:05.899Z,60.70
2018-06-09T07:02:34.150Z,61.18
2018-06-09T07:05:02.875Z,60.79
2018-06-09T07:07:31.229Z,60.10
2018-06-09T07:09:59.771Z,59.95
2018-06-09T07:12:28.285Z,60.10
2018-06-09T07:14:56.707Z,60.57
2018-06-09T07:17:25.136Z,61.21
2018-06-09T07:19:53.770Z,61.73
2018-06-09T07:22:22.393Z,60.79
2018-06-09T07:24:51.168Z,62.08
2018-06-09T07:27:19.626Z,61.20
2018-06-09T07:29:48.475Z,60.63
2018-06-09T07:32:17.060Z,59.72
2018-06-09T07:34:45.648Z,60.48
2018-06-09T07:37:14.298Z,60.30
2018-06-09T07:39:42.855Z,61.25
2018-06-09T07:42:11.470Z,61.79
2018-06-09T07:44:40.044Z,61.20
2018-06-09T07:47:08.619Z,60.89
2018-06-09T07:49:37.382Z,60.63
2018-06-09T07:52:05.979Z,60.46
2018-06-09T07:54:34.504Z,60.68
2018-06-09T07:57:03.131Z,60.18
2018-06-09T07:59:31.719Z,60.54
2018-06-09T08:02:00.006Z,61.29
2018-06-09T08:04:28.509Z,62.36
2018-06-09T08:06:57.387Z,62.91
2018-06-09T08:09:26.002Z,62.76
2018-06-09T08:11:54.606Z,61.50
2018-06-09T08:14:23.524Z,61.38
2018-06-09T08:16:52.089Z,61.24
2018-06-09T08:19:23.552Z,61.36
2018-06-09T08:21:52.010Z,61.82
2018-06-09T08:24:20.708Z,62.02
2018-06-09T08:26:49.201Z,61.49
2018-06-09T08:29:17.773Z,61.47
2018-06-09T08:31:46.356Z,61.37
2018-06-09T08:34:15.006Z,60.39
2018-06-09T08:36:43.523Z,59.91
2018-06-09T08:39:12.190Z,59.18
2018-06-09T08:41:40.719Z,58.59
2018-06-09T08:44:09.248Z,60.54
2018-06-09T08:46:37.702Z,61.34
2018-06-09T08:49:06.444Z,61.07
2018-06-09T08:51:34.950Z,61.24
2018-06-09T08:54:03.381Z,59.76
2018-06-09T08:56:31.937Z,61.04
2018-06-09T08:59:00.550Z,60.07
2018-06-09T09:01:29.033Z,60.40
2018-06-09T09:03:57.411Z,60.15
2018-06-09T09:06:26.295Z,61.14
2018-06-09T09:08:54.726Z,60.74
2018-06-09T09:11:23.017Z,61.68
2018-06-09T09:13:51.965Z,62.37
2018-06-09T09:16:20.913Z,62.02
2018-06-09T09:18:49.445Z,61.87
2018-06-09T09:21:18.065Z,61.63
2018-06-09T09:23:46.345Z,61.98
2018-06-09T09:26:14.662Z,61.75
2018-06-09T09:28:43.231Z,61.85
2018-06-09T09:31:11.733Z,62.02
2018-06-09T09:33:40.451Z,60.75
2018-06-09T09:36:08.972Z,60.87
2018-06-09T09:38:37.620Z,60.91
2018-06-09T09:41:06.813Z,60.28
2018-06-09T09:43:35.980Z,58.83
2018-06-09T09:46:04.659Z,60.08
2018-06-09T09:48:33.372Z,59.72
2018-06-09T09:51:01.919Z,60.01
2018-06-09T09:53:30.477Z,59.71
2018-06-09T09:55:58.809Z,59.42
2018-06-09T09:58:27.405Z,60.11
2018-06-09T10:00:55.896Z,59.97
2018-06-09T10:03:24.519Z,59.64
2018-06-09T10:05:53.200Z,58.91
2018-06-09T10:08:21.814Z,58.73
2018-06-09T10:10:50.313Z,58.60
2018-06-09T10:13:19.020Z,59.02
2018-06-09T10:15:47.827Z,58.49
2018-06-09T10:18:16.776Z,60.07
2018-06-09T10:20:45.281Z,57.93
2018-06-09T10:23:13.753Z,58.71
2018-06-09T10:25:42.399Z,57.55
2018-06-09T10:28:10.839Z,58.73
2018-06-09T10:30:39.695Z,57.04
2018-06-09T10:33:08.234Z,56.71
2018-06-09T10:35:36.901Z,56.68
2018-06-09T10:38:05.429Z,57.79
2018-06-09T10:40:34.204Z,56.58
2018-06-09T10:43:02.623Z,57.06
2018-06-09T10:45:32.062Z,56.13
2018-06-09T10:48:00.708Z,56.68
2018-06-09T10:50:29.413Z,56.50
2018-06-09T10:52:58.152Z,57.58
2018-06-09T10:55:27.033Z,56.74
2018-06-09T10:57:55.648Z,57.77
2018-06-09T11:00:24.156Z,57.25
2018-06-09T11:02:52.859Z,57.11
2018-06-09T11:05:21.586Z,57.00
2018-06-09T11:07:50.274Z,58.63
2018-06-09T11:10:18.756Z,57.05
2018-06-09T11:12:47.333Z,56.82
2018-06-09T11:15:15.776Z,57.12
2018-06-09T11:17:44.460Z,56.56
2018-06-09T11:20:13.337Z,58.07
2018-06-09T11:22:41.999Z,58.72
2018-06-09T11:25:10.502Z,56.58
2018-06-09T11:27:39.084Z,58.10
2018-06-09T11:30:07.547Z,56.50
2018-06-09T11:32:35.963Z,56.98
2018-06-09T11:35:04.913Z,57.04
2018-06-09T11:37:33.494Z,56.84
2018-06-09T11:40:01.918Z,58.19
2018-06-09T11:42:30.838Z,57.87
2018-06-09T11:44:59.194Z,57.28
2018-06-09T11:47:27.848Z,56.00
2018-06-09T11:49:56.679Z,56.24
2018-06-09T11:52:25.115Z,56.17
2018-06-09T11:54:53.721Z,56.96
2018-06-09T11:57:22.168Z,54.02
2018-06-09T11:59:50.814Z,54.77
2018-06-09T12:02:19.293Z,54.54
2018-06-09T12:04:47.969Z,54.94
2018-06-09T12:07:16.483Z,55.32
2018-06-09T12:09:45.044Z,56.10
2018-06-09T12:12:13.565Z,55.58
2018-06-09T12:14:42.359Z,56.00
2018-06-09T12:17:10.909Z,54.93
2018-06-09T12:19:39.237Z,54.30
2018-06-09T12:22:07.889Z,54.55
2018-06-09T12:24:36.791Z,54.92
2018-06-09T12:27:05.648Z,54.74
2018-06-09T12:29:34.529Z,54.46
2018-06-09T12:32:03.153Z,54.08
2018-06-09T12:34:31.664Z,54.95
2018-06-09T12:37:00.488Z,53.63
2018-06-09T12:39:28.950Z,53.30
2018-06-09T12:41:57.741Z,52.57
2018-06-09T12:44:26.435Z,53.38
2018-06-09T12:46:54.782Z,51.64
2018-06-09T12:49:23.691Z,53.80
2018-06-09T12:51:52.268Z,52.85
2018-06-09T12:54:20.840Z,53.28
2018-06-09T12:56:49.411Z,52.25
2018-06-09T12:59:18.094Z,53.03
2018-06-09T13:01:46.545Z,50.76
2018-06-09T13:04:15.269Z,50.00
2018-06-09T13:06:43.905Z,50.90
2018-06-09T13:09:12.595Z,50.54
2018-06-09T13:11:41.096Z,49.91
2018-06-09T13:14:09.550Z,48.17
2018-06-09T13:16:37.896Z,48.40
2018-06-09T13:19:06.525Z,49.37
2018-06-09T13:21:35.559Z,48.22
2018-06-09T13:24:03.973Z,48.93
2018-06-09T13:26:32.597Z,48.95
2018-06-09T13:29:01.375Z,48.43
2018-06-09T13:31:29.934Z,49.09
2018-06-09T13:33:58.641Z,48.16
2018-06-09T13:36:27.065Z,50.32
2018-06-09T13:38:55.480Z,50.87
2018-06-09T13:41:24.168Z,50.86
2018-06-09T13:43:52.785Z,49.85
2018-06-09T13:46:21.255Z,52.16
2018-06-09T13:48:49.701Z,50.26
2018-06-09T13:51:18.281Z,49.64
2018-06-09T13:53:46.802Z,48.68
2018-06-09T13:56:15.381Z,48.14
2018-06-09T13:58:43.969Z,48.42
2018-06-09T14:01:12.424Z,47.92
2018-06-09T14:03:41.051Z,45.80
2018-06-09T14:06:09.545Z,44.64
2018-06-09T14:08:37.932Z,47.16
2018-06-09T14:11:06.579Z,45.62
2018-06-09T14:13:35.186Z,45.83
2018-06-09T14:16:03.835Z,45.13
2018-06-09T14:18:32.456Z,46.43
2018-06-09T14:21:01.452Z,45.00
2018-06-09T14:23:30.134Z,45.37
2018-06-09T14:25:58.544Z,44.68
2018-06-09T14:28:27.298Z,44.71
2018-06-09T14:30:56.032Z,43.34
2018-06-09T14:33:24.839Z,43.88
2018-06-09T14:35:53.440Z,43.63
2018-06-09T14:38:22.012Z,44.57
2018-06-09T14:40:50.537Z,44.09
2018-06-09T14:43:18.997Z,42.93
2018-06-09T14:45:47.648Z,42.16
2018-06-09T14:48:16.301Z,43.53
2018-06-09T14:50:44.935Z,44.02
2018-06-09T14:53:13.652Z,44.81
2018-06-09T14:55:42.019Z,44.90
2018-06-09T14:58:10.789Z,45.36
2018-06-09T15:00:39.554Z,46.40
2018-06-09T15:03:07.971Z,46.22
2018-06-09T15:05:36.670Z,45.52
2018-06-09T15:08:05.467Z,44.35
2018-06-09T15:10:33.900Z,46.06
2018-06-09T15:13:02.577Z,45.46
2018-06-09T15:15:31.115Z,45.62
2018-06-09T15:17:59.900Z,45.76
2018-06-09T15:20:28.405Z,45.33
2018-06-09T15:22:56.860Z,46.57
2018-06-09T15:25:25.494Z,47.18
2018-06-09T15:27:53.914Z,46.67
2018-06-09T15:30:22.469Z,48.61
2018-06-09T15:32:50.912Z,48.24
2018-06-09T15:35:19.769Z,47.95
2018-06-09T15:37:48.169Z,48.30
2018-06-09T15:40:16.782Z,49.04
2018-06-09T15:42:45.495Z,49.20
2018-06-09T15:45:14.394Z,49.60
2018-06-09T15:47:42.848Z,50.79
2018-06-09T15:50:11.591Z,50.70
2018-06-09T15:52:39.993Z,51.22
2018-06-09T15:55:08.473Z,50.28
2018-06-09T15:57:37.222Z,51.15
2018-06-09T16:00:06.173Z,51.42
2018-06-09T16:02:34.665Z,50.50
2018-06-09T16:05:03.297Z,50.86
2018-06-09T16:07:31.730Z,51.57
2018-06-09T16:10:00.457Z,51.87
2018-06-09T16:12:29.213Z,52.56
2018-06-09T16:14:57.732Z,51.90
2018-06-09T16:17:26.244Z,51.64
2018-06-09T16:19:54.662Z,52.24
2018-06-09T16:22:23.505Z,51.49
2018-06-09T16:24:52.013Z,52.25
2018-06-09T16:27:20.680Z,52.18
2018-06-09T16:29:48.949Z,50.52
2018-06-09T16:32:17.579Z,51.04
2018-06-09T16:34:46.493Z,51.88
2018-06-09T16:37:14.961Z,52.13
2018-06-09T16:39:43.695Z,52.38
2018-06-09T16:42:12.102Z,52.39
2018-06-09T16:44:40.499Z,50.89
2018-06-09T16:47:09.255Z,51.83
2018-06-09T16:49:37.578Z,51.43
2018-06-09T16:52:06.461Z,51.48
2018-06-09T16:54:35.107Z,51.36
2018-06-09T16:57:03.813Z,52.92
2018-06-09T16:59:33.779Z,51.89
2018-06-09T17:02:03.011Z,51.76
2018-06-09T17:04:31.343Z,52.28
2018-06-09T17:07:00.469Z,53.04
2018-06-09T17:09:28.938Z,53.33
2018-06-09T17:11:57.557Z,53.11
2018-06-09T17:14:26.127Z,53.03
2018-06-09T17:16:54.982Z,53.70
2018-06-09T17:19:23.846Z,53.46
2018-06-09T17:21:52.457Z,54.07
2018-06-09T17:24:21.076Z,54.48
2018-06-09T17:26:49.598Z,55.42
2018-06-09T17:29:18.049Z,54.58
2018-06-09T17:31:46.656Z,54.13
2018-06-09T17:34:15.472Z,54.41
2018-06-09T17:36:43.941Z,54.84
2018-06-09T17:39:12.678Z,54.40
2018-06-09T17:41:41.095Z,54.52
2018-06-09T17:44:09.823Z,55.22
2018-06-09T17:46:38.535Z,55.71
2018-06-09T17:49:07.694Z,54.94
2018-06-09T17:51:36.150Z,55.50
2018-06-09T17:54:04.796Z,54.94
2018-06-09T17:56:33.588Z,54.66
2018-06-09T17:59:02.096Z,55.63
2018-06-09T18:01:30.855Z,56.42
2018-06-09T18:03:59.563Z,55.32
2018-06-09T18:06:27.892Z,55.15
2018-06-09T18:08:56.484Z,56.17
2018-06-09T18:11:25.003Z,56.33
2018-06-09T18:13:53.431Z,56.98
2018-06-09T18:16:21.941Z,55.23
2018-06-09T18:18:50.359Z,55.03
2018-06-09T18:21:19.241Z,55.89
2018-06-09T18:23:47.991Z,57.30
2018-06-09T18:26:16.513Z,57.55
2018-06-09T18:28:45.881Z,57.47
2018-06-09T18:31:14.451Z,57.81
2018-06-09T18:33:43.149Z,56.90
2018-06-09T18:36:11.775Z,56.92
2018-06-09T18:38:40.247Z,56.02
2018-06-09T18:41:08.529Z,56.17
2018-06-09T18:43:37.123Z,57.23
2018-06-09T18:46:05.364Z,57.63
2018-06-09T18:48:33.963Z,57.59
2018-06-09T18:51:02.674Z,57.83
2018-06-09T18:53:31.100Z,57.82
2018-06-09T18:55:59.591Z,57.15
2018-06-09T18:58:28.217Z,57.89
2018-06-09T19:00:56.769Z,57.64
2018-06-09T19:03:25.209Z,56.87
2018-06-09T19:05:54.028Z,57.34
2018-06-09T19:08:22.490Z,57.40
2018-06-09T19:10:50.934Z,57.85
2018-06-09T19:13:19.446Z,58.92
2018-06-09T19:15:48.057Z,58.43
2018-06-09T19:18:16.678Z,58.97
2018-06-09T19:20:45.185Z,60.08
2018-06-09T19:23:13.926Z,60.04
2018-06-09T19:25:42.484Z,60.40
2018-06-09T19:28:11.216Z,60.42
2018-06-09T19:30:39.605Z,60.61
2018-06-09T19:33:08.060Z,60.37
2018-06-09T19:35:36.623Z,60.81
2018-06-09T19:38:05.205Z,60.83
2018-06-09T19:40:34.250Z,61.44
2018-06-09T19:43:02.648Z,61.88
2018-06-09T19:45:31.474Z,61.92
2018-06-09T19:48:00.155Z,61.88
2018-06-09T19:50:28.784Z,61.70
2018-06-09T19:52:57.714Z,61.17
2018-06-09T19:55:26.621Z,62.02
2018-06-09T19:57:55.455Z,61.37
2018-06-09T20:00:24.377Z,61.83
2018-06-09T20:02:52.929Z,61.84
2018-06-09T20:05:21.481Z,62.23
2018-06-09T20:07:50.307Z,62.42
2018-06-09T20:10:18.967Z,62.72
2018-06-09T20:12:47.756Z,62.71
2018-06-09T20:15:16.444Z,62.19
2018-06-09T20:17:45.266Z,61.85
2018-06-09T20:20:13.636Z,62.42
2018-06-09T20:22:42.297Z,62.76
2018-06-09T20:25:11.051Z,62.34
2018-06-09T20:27:40.111Z,62.06
2018-06-09T20:30:09.000Z,62.37
2018-06-09T20:32:37.720Z,62.16
2018-06-09T20:35:06.467Z,63.47
2018-06-09T20:37:35.158Z,62.69
2018-06-09T20:40:03.765Z,62.85
2018-06-09T20:42:32.334Z,62.70
2018-06-09T20:45:00.860Z,62.98
2018-06-09T20:47:29.470Z,63.52
2018-06-09T20:49:58.298Z,62.54
2018-06-09T20:52:26.620Z,62.95
2018-06-09T20:54:55.475Z,62.47
2018-06-09T20:57:23.898Z,62.30
2018-06-09T20:59:52.466Z,62.34
2018-06-09T21:02:21.471Z,62.63
2018-06-09T21:04:50.176Z,62.86
2018-06-09T21:07:18.893Z,63.56
2018-06-09T21:09:47.423Z,63.63
2018-06-09T21:12:16.277Z,63.67
2018-06-09T21:14:44.867Z,63.91
2018-06-09T21:17:13.505Z,65.12
2018-06-09T21:19:41.953Z,64.39
2018-06-09T21:22:10.625Z,64.58
2018-06-09T21:24:39.340Z,64.97
2018-06-09T21:27:13.863Z,65.94
2018-06-09T21:29:48.224Z,65.64
2018-06-09T21:33:25.425Z,65.65
2018-06-09T21:36:01.782Z,66.66
2018-06-09T21:38:32.934Z,66.97
2018-06-09T21:41:06.751Z,67.32
2018-06-09T21:43:41.061Z,67.52
2018-06-09T21:46:13.919Z,67.91
2018-06-09T21:48:42.532Z,67.80
2018-06-09T21:51:11.232Z,68.43
2018-06-09T21:53:40.198Z,68.51
2018-06-09T21:56:08.801Z,68.66
2018-06-09T21:58:37.363Z,68.04
2018-06-09T22:01:06.189Z,67.86
2018-06-09T22:03:35.064Z,68.19
2018-06-09T22:06:03.817Z,68.42
2018-06-09T22:08:32.529Z,69.51
2018-06-09T22:11:01.357Z,68.49
2018-06-09T22:13:30.031Z,69.09
2018-06-09T22:15:58.659Z,68.60
2018-06-09T22:18:27.183Z,68.28
2018-06-09T22:20:55.493Z,68.37
2018-06-09T22:23:24.078Z,68.93
2018-06-09T22:25:58.386Z,68.78
2018-06-09T22:28:27.472Z,68.13
2018-06-09T22:30:56.077Z,68.19
2018-06-09T22:33:24.472Z,68.55
2018-06-09T22:35:53.256Z,69.36
2018-06-09T22:38:22.076Z,69.23
2018-06-09T22:40:51.008Z,68.72
2018-06-09T22:43:19.657Z,68.37
2018-06-09T22:45:48.506Z,68.20
2018-06-09T22:48:17.226Z,68.01
2018-06-09T22:50:45.752Z,68.68
2018-06-09T22:53:14.309Z,69.23
2018-06-09T22:55:43.132Z,68.12
2018-06-09T22:58:11.645Z,68.72
2018-06-09T23:00:57.940Z,68.05
2018-06-09T23:03:26.719Z,68.94
2018-06-09T23:05:55.210Z,67.72
2018-06-09T23:08:23.932Z,67.41
2018-06-09T23:10:52.822Z,68.35
2018-06-09T23:13:21.481Z,68.30
2018-06-09T23:15:50.292Z,68.16
2018-06-09T23:18:19.023Z,67.31
2018-06-09T23:20:47.548Z,68.24
2018-06-09T23:23:16.325Z,67.80
2018-06-09T23:25:44.769Z,68.74
2018-06-09T23:28:13.434Z,68.90
2018-06-09T23:30:42.116Z,69.29
2018-06-09T23:33:10.868Z,68.32
2018-06-09T23:35:39.579Z,69.77
2018-06-09T23:38:08.154Z,70.16
2018-06-09T23:40:36.559Z,70.03
2018-06-09T23:43:05.217Z,69.68
2018-06-09T23:45:33.972Z,70.34
2018-06-09T23:48:02.898Z,70.75
2018-06-09T23:50:31.392Z,70.02
2018-06-09T23:52:59.963Z,70.90
2018-06-09T23:55:28.810Z,71.14
2018-06-09T23:57:57.319Z,72.45
